Antigo, WI

8:47 AM CST on February 12, 2016 (GMT -0600)
Langlade County

Weather History for KAIG - August, 2013

Change the Weather History Date:

Friday, August 2, 2013

  Actual Average Record
Temperature  
Mean Temperature 62 °F -  
Max Temperature 73 °F 78 °F 97 °F (1964)
Min Temperature 50 °F 54 °F 39 °F (1965)
Degree Days  
Heating Degree Days 3    
Growing Degree Days 12 (Base 50)    
Moisture  
Dew Point 53 °F    
Average Humidity 75    
Maximum Humidity 99    
Minimum Humidity 45    
Precipitation  
Precipitation 0.12 in - - ()
Sea Level Pressure  
Sea Level Pressure 29.90 in    
Wind  
Wind Speed 5 mph (NW)    
Max Wind Speed 14 mph    
Max Gust Speed 21 mph    
Visibility 10 miles    
Events Rain    
Averages and records for this station are not official NWS values.
T = Trace of Precipitation, MM = Missing Value Source: NWS Daily Summary

Daily Weather History Graph

Daily Weather History Graph

Search for Another Location

Airport or City:

Trip Planner

Search our weather history database for the weather conditions in past years. The results will help you decide how hot, cold, wet, or windy it might be!

Date:

Astronomy

Aug. 02, 2013 Rise Set
Actual Time 5:42 AM CDT 8:21 PM CDT
Civil Twilight 5:09 AM CDT 8:55 PM CDT
Nautical Twilight 4:26 AM CDT 9:37 PM CDT
Astronomical Twilight 3:37 AM CDT 10:26 PM CDT
Moon 2:01 AM CDT (8/2) 5:21 PM CDT (8/2)
Length of Visible Light 15h 46m
Length of Day
14h 38m
Waning Crescent, 15% of the Moon is Illuminated
Aug 2
Waning Crescent
Aug 6
New
Aug 14
First Quarter
Aug 20
Full
Aug 28
Last Quarter

Hourly Weather History & Observations

Time (CDT) Temp. Dew Point Humidity Pressure Visibility Wind Dir Wind Speed Gust Speed Precip Events Conditions
12:15 AM 53.8 °F 50.4 °F 88% 29.89 in 10.0 mi SW 4.6 mph - N/A   Clear
12:35 AM 54.7 °F 50.7 °F 86% 29.88 in 10.0 mi WSW 3.5 mph - N/A   Clear
12:55 AM 55.6 °F 52.3 °F 89% 29.88 in 10.0 mi WSW 3.5 mph - N/A   Clear
1:15 AM 56.1 °F 53.1 °F 89% 29.88 in 10.0 mi West 5.8 mph - N/A   Mostly Cloudy
1:35 AM 57.6 °F 54.0 °F 88% 29.88 in 10.0 mi NW 12.7 mph 20.7 mph N/A Rain Light Rain
1:55 AM 56.7 °F 54.9 °F 94% 29.88 in 7.0 mi NW 8.1 mph - 0.03 in Rain Light Rain
2:15 AM 56.3 °F 54.7 °F 94% 29.86 in 10.0 mi North 3.5 mph - N/A   Light Drizzle
2:35 AM 56.7 °F 54.3 °F 92% 29.88 in 10.0 mi North 9.2 mph 17.3 mph N/A   Overcast
2:55 AM 56.3 °F 54.5 °F 94% 29.86 in 10.0 mi NE 3.5 mph - N/A   Overcast
3:15 AM 54.9 °F 53.8 °F 96% 29.85 in 10.0 mi SE 3.5 mph - N/A   Mostly Cloudy
3:35 AM 54.1 °F 53.2 °F 97% 29.86 in 10.0 mi Calm Calm - N/A   Mostly Cloudy
3:55 AM 53.1 °F 52.7 °F 99% 29.86 in 10.0 mi Calm Calm - N/A   Mostly Cloudy
4:15 AM 52.7 °F 52.2 °F 98% 29.85 in 10.0 mi Calm Calm - N/A   Scattered Clouds
4:35 AM 53.8 °F 53.2 °F 98% 29.85 in 3.0 mi Calm Calm - 0.08 in Rain Heavy Rain
4:55 AM 54.5 °F 54.1 °F 99% 29.87 in 10.0 mi North 11.5 mph - 0.08 in   Mostly Cloudy
5:15 AM 55.8 °F 54.0 °F 94% 29.86 in 10.0 mi North 5.8 mph - 0.01 in   Mostly Cloudy
5:35 AM 54.3 °F 53.4 °F 97% 29.86 in 10.0 mi Calm Calm - 0.01 in   Scattered Clouds
5:55 AM 53.1 °F 52.7 °F 99% 29.86 in 10.0 mi Calm Calm - 0.01 in   Clear
6:15 AM 52.2 °F 51.8 °F 99% 29.85 in 7.0 mi Calm Calm - N/A   Clear
6:35 AM 52.0 °F 51.8 °F 99% 29.85 in 1.2 mi Calm Calm - N/A   Mist
6:55 AM 54.1 °F 54.0 °F 99% 29.85 in 5.0 mi Calm Calm - N/A   Clear
7:15 AM 56.3 °F 55.6 °F 97% 29.85 in 10.0 mi Calm Calm - N/A   Clear
7:35 AM 58.1 °F 55.4 °F 91% 29.86 in 10.0 mi Calm Calm - N/A   Clear
7:55 AM 59.5 °F 56.5 °F 90% 29.86 in 10.0 mi Calm Calm - N/A   Clear
8:15 AM 61.5 °F 57.0 °F 85% 29.86 in 10.0 mi Calm Calm - N/A   Clear
8:35 AM 63.5 °F 57.4 °F 80% 29.86 in 10.0 mi Calm Calm - N/A   Clear
8:55 AM 64.6 °F 57.2 °F 77% 29.87 in 10.0 mi West 5.8 mph - N/A   Clear
9:15 AM 65.8 °F 57.7 °F 75% 29.87 in 10.0 mi WNW 10.4 mph - N/A   Clear
9:35 AM 66.2 °F 58.1 °F 75% 29.88 in 10.0 mi NW 9.2 mph - N/A   Clear
9:55 AM 66.7 °F 57.2 °F 71% 29.88 in 10.0 mi WNW 10.4 mph - N/A   Scattered Clouds
10:15 AM 67.3 °F 57.0 °F 70% 29.88 in 10.0 mi NNW 10.4 mph - N/A   Scattered Clouds
10:35 AM 67.3 °F 56.7 °F 69% 29.88 in 10.0 mi NW 10.4 mph - N/A   Scattered Clouds
10:55 AM 66.7 °F 55.8 °F 68% 29.88 in 10.0 mi NW 8.1 mph - N/A   Scattered Clouds
11:15 AM 68.4 °F 56.3 °F 65% 29.88 in 10.0 mi NNW 8.1 mph - N/A   Mostly Cloudy
11:35 AM 69.1 °F 56.1 °F 63% 29.88 in 10.0 mi NNW 8.1 mph 16.1 mph N/A   Mostly Cloudy
11:55 AM 68.9 °F 54.7 °F 60% 29.88 in 10.0 mi WNW 8.1 mph - N/A   Mostly Cloudy
12:15 PM 69.6 °F 54.1 °F 58% 29.88 in 10.0 mi NW 12.7 mph 16.1 mph N/A   Scattered Clouds
12:35 PM 70.9 °F 54.0 °F 55% 29.88 in 10.0 mi NW 10.4 mph - N/A   Scattered Clouds
12:55 PM 71.1 °F 54.3 °F 55% 29.89 in 10.0 mi NW 11.5 mph - N/A   Scattered Clouds
1:15 PM 71.1 °F 52.7 °F 52% 29.89 in 10.0 mi NW 12.7 mph 17.3 mph N/A   Scattered Clouds
1:35 PM 72.7 °F 51.4 °F 47% 29.89 in 10.0 mi WNW 11.5 mph 16.1 mph N/A   Scattered Clouds
1:55 PM 70.9 °F 52.0 °F 51% 29.89 in 10.0 mi NNW 11.5 mph 17.3 mph N/A   Scattered Clouds
2:15 PM 70.7 °F 51.6 °F 51% 29.90 in 10.0 mi NW 8.1 mph - N/A   Scattered Clouds
2:35 PM 70.0 °F 50.4 °F 50% 29.90 in 10.0 mi NW 10.4 mph - N/A   Scattered Clouds
2:55 PM 71.6 °F 51.6 °F 49% 29.91 in 10.0 mi NNW 11.5 mph 17.3 mph N/A   Scattered Clouds
3:15 PM 73.0 °F 50.7 °F 45% 29.91 in 10.0 mi NNW 12.7 mph 16.1 mph N/A   Scattered Clouds
3:35 PM 70.0 °F 49.8 °F 49% 29.91 in 10.0 mi NNW 10.4 mph 18.4 mph N/A   Mostly Cloudy
3:55 PM 72.0 °F 50.2 °F 46% 29.91 in 10.0 mi NW 11.5 mph 17.3 mph N/A   Scattered Clouds
4:15 PM 72.3 °F 49.8 °F 45% 29.91 in 10.0 mi NNW 13.8 mph 17.3 mph N/A   Mostly Cloudy
4:35 PM 72.3 °F 49.6 °F 45% 29.91 in 10.0 mi WNW 13.8 mph - N/A   Scattered Clouds
4:55 PM 70.3 °F 49.5 °F 47% 29.91 in 10.0 mi NNW 11.5 mph 17.3 mph N/A   Clear
5:15 PM 71.4 °F 49.1 °F 45% 29.91 in 10.0 mi NNW 11.5 mph - N/A   Clear
5:35 PM 70.2 °F 50.2 °F 49% 29.91 in 10.0 mi NW 11.5 mph - N/A   Clear
5:55 PM 70.0 °F 49.8 °F 49% 29.92 in 10.0 mi NW 10.4 mph - N/A   Clear
6:15 PM 68.7 °F 50.2 °F 52% 29.93 in 10.0 mi NNW 6.9 mph - N/A   Clear
6:35 PM 68.0 °F 50.4 °F 53% 29.93 in 10.0 mi NNW 9.2 mph - N/A   Clear
6:55 PM 67.1 °F 51.6 °F 57% 29.93 in 10.0 mi NNW 5.8 mph - N/A   Clear
7:15 PM 66.0 °F 53.1 °F 63% 29.94 in 10.0 mi NNW 4.6 mph - N/A   Clear
7:35 PM 64.9 °F 52.0 °F 63% 29.95 in 10.0 mi North 5.8 mph - N/A   Clear
7:55 PM 63.0 °F 52.3 °F 68% 29.96 in 10.0 mi North 6.9 mph - N/A   Clear
8:35 PM 60.8 °F 51.1 °F 70% 29.97 in 10.0 mi North 5.8 mph - N/A   Clear
8:55 PM 58.6 °F 51.3 °F 76% 29.98 in 10.0 mi North 3.5 mph - N/A   Clear
9:15 PM 57.2 °F 51.6 °F 82% 29.99 in 10.0 mi NNW 3.5 mph - N/A   Clear
9:35 PM 57.4 °F 50.9 °F 79% 30.00 in 10.0 mi Calm Calm - N/A   Clear
9:55 PM 55.6 °F 50.9 °F 84% 30.01 in 10.0 mi Calm Calm - N/A   Clear
10:15 PM 54.7 °F 50.4 °F 85% 30.01 in 10.0 mi Calm Calm - N/A   Clear
10:35 PM 52.5 °F 50.5 °F 93% 30.01 in 10.0 mi Calm Calm - N/A   Clear
10:55 PM 52.9 °F 50.2 °F 91% 30.01 in 10.0 mi Calm Calm - N/A   Clear
11:15 PM 51.3 °F 50.0 °F 95% 30.01 in 10.0 mi Calm Calm - N/A   Clear
11:35 PM 51.1 °F 49.5 °F 94% 30.01 in 10.0 mi Calm Calm - N/A   Clear
11:55 PM 50.9 °F 49.1 °F 94% 30.01 in 10.0 mi Calm Calm - N/A   Clear